createdAt,value
2023-07-15T00:01:39.347Z,101285.80
2023-07-15T00:04:14.525Z,101284.08
2023-07-15T00:06:43.100Z,101281.30
2023-07-15T00:09:11.859Z,101279.79
2023-07-15T00:11:46.451Z,101288.06
2023-07-15T00:14:23.919Z,101280.31
2023-07-15T00:16:52.755Z,101275.93
2023-07-15T00:19:21.674Z,101277.57
2023-07-15T00:21:51.053Z,101275.48
2023-07-15T00:24:19.605Z,101275.21
2023-07-15T00:26:49.827Z,101280.80
2023-07-15T00:29:18.762Z,101280.34
2023-07-15T00:31:46.827Z,101282.57
2023-07-15T00:34:15.795Z,101282.63
2023-07-15T00:36:43.760Z,101282.63
2023-07-15T00:39:12.069Z,101281.46
2023-07-15T00:41:40.050Z,101281.46
2023-07-15T00:44:16.591Z,101284.37
2023-07-15T00:47:14.951Z,101279.95
2023-07-15T00:49:43.744Z,101280.61
2023-07-15T00:52:16.809Z,101281.72
2023-07-15T00:54:48.292Z,101278.81
2023-07-15T00:57:20.256Z,101279.43
2023-07-15T00:59:50.044Z,101276.65
2023-07-15T01:02:18.500Z,101280.80
2023-07-15T01:04:48.263Z,101279.82
2023-07-15T01:07:17.610Z,101287.28
2023-07-15T01:09:46.552Z,101282.11
2023-07-15T01:12:15.140Z,101277.14
2023-07-15T01:14:45.098Z,101291.01
2023-07-15T01:17:13.200Z,101286.04
2023-07-15T01:19:41.288Z,101289.60
2023-07-15T01:22:10.016Z,101285.97
2023-07-15T01:24:38.604Z,101287.64
2023-07-15T01:27:10.170Z,101294.02
2023-07-15T01:29:38.625Z,101279.92
2023-07-15T01:32:07.670Z,101283.59
2023-07-15T01:34:35.648Z,101286.33
2023-07-15T01:37:03.651Z,101279.73
2023-07-15T01:39:31.940Z,101282.18
2023-07-15T01:41:59.918Z,101275.64
2023-07-15T01:44:27.959Z,101276.98
2023-07-15T01:46:56.021Z,101281.79
2023-07-15T01:49:23.988Z,101281.30
2023-07-15T01:51:51.903Z,101281.79
2023-07-15T01:54:19.856Z,101272.56
2023-07-15T01:56:48.549Z,101280.02
2023-07-15T01:59:16.518Z,101283.88
2023-07-15T02:01:44.463Z,101281.03
2023-07-15T02:04:12.424Z,101269.59
2023-07-15T02:06:40.370Z,101275.64
2023-07-15T02:09:10.463Z,101275.08
2023-07-15T02:11:38.433Z,101271.88
2023-07-15T02:14:06.760Z,101275.08
2023-07-15T02:16:34.778Z,101263.87
2023-07-15T02:19:02.821Z,101267.66
2023-07-15T02:21:30.910Z,101267.73
2023-07-15T02:23:58.843Z,101269.88
2023-07-15T02:26:26.717Z,101261.48
2023-07-15T02:28:55.452Z,101263.70
2023-07-15T02:31:23.746Z,101262.43
2023-07-15T02:33:51.677Z,101262.76
2023-07-15T02:36:21.077Z,101266.77
2023-07-15T02:38:49.028Z,101259.71
2023-07-15T02:41:17.002Z,101254.45
2023-07-15T02:43:44.950Z,101254.16
2023-07-15T02:46:13.179Z,101254.05
2023-07-15T02:48:41.226Z,101239.05
2023-07-15T02:51:09.221Z,101239.63
2023-07-15T02:53:37.394Z,101239.21
2023-07-15T02:56:05.875Z,101250.98
2023-07-15T02:58:33.997Z,101251.21
2023-07-15T03:01:01.935Z,101236.01
2023-07-15T03:03:29.905Z,101243.27
2023-07-15T03:05:58.421Z,101254.16
2023-07-15T03:08:26.777Z,101256.31
2023-07-15T03:10:55.888Z,101251.67
2023-07-15T03:13:24.423Z,101252.62
2023-07-15T03:15:52.354Z,101251.31
2023-07-15T03:18:20.230Z,101254.97
2023-07-15T03:20:48.090Z,101252.95
2023-07-15T03:23:16.057Z,101250.03
2023-07-15T03:25:44.023Z,101248.14
2023-07-15T03:28:12.309Z,101248.70
2023-07-15T03:30:40.299Z,101246.89
2023-07-15T03:33:08.321Z,101253.63
2023-07-15T03:35:36.439Z,101251.31
2023-07-15T03:38:04.612Z,101265.53
2023-07-15T03:40:32.579Z,101263.44
2023-07-15T03:43:00.464Z,101252.62
2023-07-15T03:45:28.471Z,101251.73
2023-07-15T03:47:56.484Z,101273.45
2023-07-15T03:50:24.361Z,101264.45
2023-07-15T03:52:52.255Z,101263.41
2023-07-15T03:55:20.277Z,101258.83
2023-07-15T03:57:48.219Z,101256.70
2023-07-15T04:00:19.636Z,101251.51
2023-07-15T04:02:48.839Z,101260.83
2023-07-15T04:05:16.876Z,101251.24
2023-07-15T04:07:44.797Z,101247.02
2023-07-15T04:10:13.759Z,101259.35
2023-07-15T04:12:41.953Z,101246.53
2023-07-15T04:15:10.503Z,101241.27
2023-07-15T04:17:38.465Z,101240.52
2023-07-15T04:20:13.348Z,101241.86
2023-07-15T04:22:41.721Z,101231.59
2023-07-15T04:25:10.068Z,101243.13
2023-07-15T04:27:37.987Z,101228.38
2023-07-15T04:30:07.790Z,101227.50
2023-07-15T04:32:35.774Z,101222.17
2023-07-15T04:35:04.615Z,101237.87
2023-07-15T04:37:33.020Z,101227.14
2023-07-15T04:40:00.991Z,101237.48
2023-07-15T04:42:28.960Z,101237.48
2023-07-15T04:44:56.967Z,101243.13
2023-07-15T04:47:24.898Z,101244.31
2023-07-15T04:49:52.798Z,101229.79
2023-07-15T04:52:20.776Z,101239.93
2023-07-15T04:54:48.734Z,101243.13
2023-07-15T04:57:19.369Z,101230.51
2023-07-15T04:59:48.514Z,101217.73
2023-07-15T05:02:16.593Z,101231.69
2023-07-15T05:04:44.626Z,101229.17
2023-07-15T05:07:12.741Z,101224.23
2023-07-15T05:09:40.694Z,101216.62
2023-07-15T05:12:09.151Z,101234.66
2023-07-15T05:14:37.278Z,101240.48
2023-07-15T05:17:08.418Z,101234.96
2023-07-15T05:19:36.516Z,101235.61
2023-07-15T05:22:04.688Z,101230.74
2023-07-15T05:24:33.486Z,101243.07
2023-07-15T05:27:01.433Z,101220.87
2023-07-15T05:29:29.488Z,101218.19
2023-07-15T05:31:57.458Z,101214.26
2023-07-15T05:34:25.473Z,101205.49
2023-07-15T05:36:53.508Z,101201.24
2023-07-15T05:39:23.403Z,101202.62
2023-07-15T05:41:51.885Z,101199.77
2023-07-15T05:44:19.773Z,101209.52
2023-07-15T05:46:47.686Z,101208.60
2023-07-15T05:49:15.669Z,101207.42
2023-07-15T05:51:43.666Z,101202.29
2023-07-15T05:54:11.718Z,101205.20
2023-07-15T05:56:39.860Z,101196.60
2023-07-15T05:59:07.809Z,101190.32
2023-07-15T06:01:35.809Z,101185.13
2023-07-15T06:04:03.819Z,101175.74
2023-07-15T06:06:31.739Z,101172.83
2023-07-15T06:08:59.825Z,101176.75
2023-07-15T06:11:27.784Z,101175.94
2023-07-15T06:13:55.725Z,101166.65
2023-07-15T06:16:24.157Z,101162.20
2023-07-15T06:18:52.097Z,101160.08
2023-07-15T06:21:20.064Z,101161.65
2023-07-15T06:23:48.136Z,101149.19
2023-07-15T06:26:16.355Z,101147.52
2023-07-15T06:28:44.463Z,101150.10
2023-07-15T06:31:14.544Z,101141.01
2023-07-15T06:33:46.982Z,101144.02
2023-07-15T06:36:15.290Z,101141.77
2023-07-15T06:38:43.213Z,101147.68
2023-07-15T06:41:11.166Z,101137.12
2023-07-15T06:43:39.194Z,101132.41
2023-07-15T06:46:08.829Z,101140.88
2023-07-15T06:48:37.055Z,101143.53
2023-07-15T06:51:05.133Z,101127.87
2023-07-15T06:53:33.100Z,101133.20
2023-07-15T06:56:14.373Z,101129.80
2023-07-15T06:58:46.762Z,101132.22
2023-07-15T07:01:15.201Z,101134.63
2023-07-15T07:03:43.630Z,101126.95
2023-07-15T07:06:11.680Z,101131.27
2023-07-15T07:08:39.719Z,101129.20
2023-07-15T07:11:07.654Z,101123.78
2023-07-15T07:13:35.588Z,101118.13
2023-07-15T07:16:03.555Z,101116.20
2023-07-15T07:18:31.551Z,101126.16
2023-07-15T07:21:00.772Z,101119.16
2023-07-15T07:23:29.267Z,101107.13
2023-07-15T07:25:57.266Z,101118.25
2023-07-15T07:28:39.112Z,101114.16
2023-07-15T07:31:07.221Z,101123.35
2023-07-15T07:33:39.037Z,101132.12
2023-07-15T07:36:07.181Z,101135.78
2023-07-15T07:38:35.321Z,101131.95
2023-07-15T07:41:11.374Z,101129.80
2023-07-15T07:43:42.987Z,101131.79
2023-07-15T07:46:13.224Z,101126.72
2023-07-15T07:48:44.150Z,101137.12
2023-07-15T07:51:12.073Z,101132.15
2023-07-15T07:53:40.275Z,101135.48
2023-07-15T07:56:08.264Z,101143.70
2023-07-15T07:58:36.403Z,101138.07
2023-07-15T08:01:04.826Z,101139.64
2023-07-15T08:03:33.037Z,101137.16
2023-07-15T08:06:02.258Z,101128.78
2023-07-15T08:08:30.345Z,101128.03
2023-07-15T08:10:58.543Z,101121.78
2023-07-15T08:13:26.637Z,101113.18
2023-07-15T08:15:54.666Z,101122.38
2023-07-15T08:18:22.899Z,101129.99
2023-07-15T08:20:51.012Z,101119.43
2023-07-15T08:23:19.922Z,101116.29
2023-07-15T08:25:48.328Z,101114.33
2023-07-15T08:28:16.327Z,101111.74
2023-07-15T08:30:44.381Z,101110.70
2023-07-15T08:33:12.387Z,101098.53
2023-07-15T08:35:40.491Z,101099.68
2023-07-15T08:38:08.423Z,101096.31
2023-07-15T08:40:37.640Z,101082.74
2023-07-15T08:43:06.683Z,101085.81
2023-07-15T08:45:36.473Z,101094.74
2023-07-15T08:48:04.710Z,101086.08
2023-07-15T08:50:35.855Z,101086.53
2023-07-15T08:53:04.602Z,101085.48
2023-07-15T08:55:33.512Z,101084.99
2023-07-15T08:58:02.213Z,101080.58
2023-07-15T09:00:30.501Z,101090.09
2023-07-15T09:02:58.683Z,101092.38
2023-07-15T09:05:26.713Z,101082.09
2023-07-15T09:07:59.402Z,101088.66
2023-07-15T09:10:30.549Z,101081.14
2023-07-15T09:12:58.600Z,101081.70
2023-07-15T09:15:26.701Z,101071.82
2023-07-15T09:17:56.388Z,101080.55
2023-07-15T09:20:25.983Z,101078.13
2023-07-15T09:22:59.364Z,101078.03
2023-07-15T09:25:29.539Z,101074.66
2023-07-15T09:27:57.716Z,101064.00
2023-07-15T09:30:25.816Z,101067.44
2023-07-15T09:39:58.681Z,101067.99
2023-07-15T09:42:29.366Z,101060.47
2023-07-15T09:44:58.090Z,101070.45
2023-07-15T09:47:30.467Z,101071.72
2023-07-15T09:49:58.428Z,101064.92
2023-07-15T09:52:26.724Z,101069.10
2023-07-15T09:54:55.428Z,101071.00
2023-07-15T09:57:25.388Z,101060.34
2023-07-15T09:59:55.440Z,101066.69
2023-07-15T10:02:44.667Z,101065.64
2023-07-15T10:05:15.797Z,101067.86
2023-07-15T10:07:44.219Z,101063.22
2023-07-15T10:10:12.804Z,101063.25
2023-07-15T10:12:41.716Z,101052.13
2023-07-15T10:15:10.571Z,101053.38
2023-07-15T10:17:39.611Z,101048.73
2023-07-15T10:20:20.676Z,101043.92
2023-07-15T10:22:50.655Z,101036.53
2023-07-15T10:25:18.833Z,101029.87
2023-07-15T10:27:46.827Z,101015.73
2023-07-15T10:30:18.018Z,101022.12
2023-07-15T10:33:11.731Z,101012.83
2023-07-15T10:35:42.530Z,101021.49
2023-07-15T10:38:31.430Z,101004.26
2023-07-15T10:41:02.599Z,101007.50
2023-07-15T10:43:36.672Z,101006.41
2023-07-15T10:46:16.458Z,101011.23
2023-07-15T10:48:44.788Z,101007.01
2023-07-15T10:51:14.122Z,101001.12
2023-07-15T10:53:42.504Z,100992.59
2023-07-15T10:56:13.322Z,100984.02
2023-07-15T10:58:45.086Z,100985.39
2023-07-15T11:01:14.944Z,100985.26
2023-07-15T11:03:44.547Z,100969.53
2023-07-15T11:06:14.447Z,100970.12
2023-07-15T11:08:43.394Z,100969.14
2023-07-15T11:11:12.763Z,100971.27
2023-07-15T11:13:43.400Z,100975.41
2023-07-15T11:16:11.726Z,100967.63
2023-07-15T11:18:39.920Z,100975.41
2023-07-15T11:21:08.634Z,100973.23
2023-07-15T11:23:36.818Z,100962.08
2023-07-15T11:26:11.417Z,100951.84
2023-07-15T11:28:52.304Z,100957.23
2023-07-15T11:31:28.502Z,100947.62
2023-07-15T11:33:59.955Z,100943.90
2023-07-15T11:36:27.870Z,100940.30
2023-07-15T11:38:55.861Z,100939.19
2023-07-15T11:41:27.555Z,100927.31
2023-07-15T11:43:56.126Z,100930.23
2023-07-15T11:46:25.139Z,100934.64
2023-07-15T11:48:53.365Z,100930.72
2023-07-15T11:51:23.900Z,100920.58
2023-07-15T11:53:55.960Z,100910.45
2023-07-15T11:56:44.870Z,100911.75
2023-07-15T11:59:14.959Z,100902.66
2023-07-15T12:01:43.620Z,100902.10
2023-07-15T12:04:16.241Z,100902.89
2023-07-15T12:06:56.381Z,100899.98
2023-07-15T12:09:25.358Z,100897.92
2023-07-15T12:11:53.796Z,100891.90
2023-07-15T12:14:22.401Z,100892.69
2023-07-15T12:16:53.611Z,100889.35
2023-07-15T12:19:22.153Z,100898.09
2023-07-15T12:21:50.110Z,100901.55
2023-07-15T12:24:18.204Z,100891.37
2023-07-15T12:26:46.291Z,100875.55
2023-07-15T12:29:14.302Z,100881.21
2023-07-15T12:31:42.334Z,100875.65
2023-07-15T12:34:10.240Z,100872.18
2023-07-15T12:36:38.283Z,100872.45
2023-07-15T12:39:06.792Z,100868.75
2023-07-15T12:41:34.787Z,100857.41
2023-07-15T12:44:02.770Z,100859.07
2023-07-15T12:46:30.736Z,100859.04
2023-07-15T12:48:58.795Z,100855.90
2023-07-15T12:51:27.387Z,100849.69
2023-07-15T12:53:55.348Z,100856.88
2023-07-15T12:56:24.229Z,100846.28
2023-07-15T12:58:52.228Z,100848.84
2023-07-15T13:01:20.553Z,100841.87
2023-07-15T13:03:48.630Z,100837.59
2023-07-15T13:06:17.162Z,100828.82
2023-07-15T13:08:45.318Z,100824.67
2023-07-15T13:11:13.484Z,100813.16
2023-07-15T13:13:41.672Z,100817.02
2023-07-15T13:16:09.766Z,100816.27
2023-07-15T13:18:37.819Z,100808.22
2023-07-15T13:21:05.779Z,100794.09
2023-07-15T13:23:33.881Z,100800.02
2023-07-15T13:26:01.962Z,100799.33
2023-07-15T13:28:29.921Z,100783.77
2023-07-15T13:30:57.985Z,100785.30
2023-07-15T13:33:25.953Z,100786.05
2023-07-15T13:35:55.357Z,100797.17
2023-07-15T13:38:23.352Z,100793.41
2023-07-15T13:40:51.531Z,100790.43
2023-07-15T13:43:19.510Z,100791.22
2023-07-15T13:45:48.290Z,100796.16
2023-07-15T13:48:16.252Z,100793.84
2023-07-15T13:50:44.227Z,100788.60
2023-07-15T13:53:12.193Z,100780.23
2023-07-15T13:55:40.094Z,100777.16
2023-07-15T13:58:08.111Z,100782.29
2023-07-15T14:00:36.266Z,100780.13
2023-07-15T14:03:04.679Z,100779.45
2023-07-15T14:05:32.719Z,100778.56
2023-07-15T14:08:00.691Z,100780.66
2023-07-15T14:10:29.560Z,100785.59
2023-07-15T14:12:57.661Z,100785.33
2023-07-15T14:15:25.674Z,100792.20
2023-07-15T14:17:53.597Z,100795.47
2023-07-15T14:20:21.695Z,100797.40
2023-07-15T14:22:50.603Z,100792.00
2023-07-15T14:25:20.330Z,100783.14
2023-07-15T14:27:48.375Z,100788.93
2023-07-15T14:30:16.471Z,100788.83
2023-07-15T14:32:44.489Z,100786.41
2023-07-15T14:35:12.473Z,100792.10
2023-07-15T14:37:40.484Z,100793.24
2023-07-15T14:40:09.487Z,100795.21
2023-07-15T14:42:39.857Z,100801.55
2023-07-15T14:45:08.776Z,100808.52
2023-07-15T14:47:38.104Z,100811.85
2023-07-15T14:50:07.134Z,100814.34
2023-07-15T14:52:35.235Z,100816.04
2023-07-15T14:55:03.267Z,100815.65
2023-07-15T14:57:31.254Z,100812.96
2023-07-15T14:59:59.169Z,100814.80
2023-07-15T15:02:27.162Z,100808.62
2023-07-15T15:04:55.116Z,100818.78
2023-07-15T15:07:23.451Z,100823.04
2023-07-15T15:09:51.517Z,100833.14
2023-07-15T15:12:19.484Z,100851.55
2023-07-15T15:14:47.458Z,100871.95
2023-07-15T15:17:16.170Z,100872.22
2023-07-15T15:19:44.116Z,100872.61
2023-07-15T15:22:12.052Z,100860.90
2023-07-15T15:24:39.979Z,100864.99
2023-07-15T15:27:08.241Z,100864.47
2023-07-15T15:29:36.308Z,100869.99
2023-07-15T15:32:04.343Z,100860.87
2023-07-15T15:34:32.482Z,100854.95
2023-07-15T15:37:00.469Z,100859.20
2023-07-15T15:39:28.419Z,100863.55
2023-07-15T15:41:56.458Z,100864.83
2023-07-15T15:44:24.662Z,100857.20
2023-07-15T15:46:52.804Z,100854.27
2023-07-15T15:49:21.293Z,100862.60
2023-07-15T15:51:49.265Z,100854.43
2023-07-15T15:54:17.232Z,100846.19
2023-07-15T15:56:45.209Z,100841.67
2023-07-15T15:59:13.174Z,100833.07
2023-07-15T16:01:41.139Z,100835.62
2023-07-15T16:04:09.192Z,100840.20
2023-07-15T16:06:38.276Z,100837.26
2023-07-15T16:09:14.310Z,100842.30
2023-07-15T16:11:51.777Z,100835.10
2023-07-15T16:14:19.749Z,100835.23
2023-07-15T16:16:52.062Z,100834.88
2023-07-15T16:19:24.539Z,100829.15
2023-07-15T16:21:53.586Z,100825.55
2023-07-15T16:24:26.617Z,100827.35
2023-07-15T16:26:55.598Z,100823.13
2023-07-15T16:29:24.404Z,100821.86
2023-07-15T16:31:52.912Z,100829.18
2023-07-15T16:34:24.949Z,100835.07
2023-07-15T16:36:52.879Z,100841.70
2023-07-15T16:39:20.836Z,100836.41
2023-07-15T16:41:48.823Z,100832.06
2023-07-15T16:44:16.740Z,100840.43
2023-07-15T16:46:44.640Z,100843.77
2023-07-15T16:49:12.683Z,100836.54
2023-07-15T16:51:41.410Z,100829.97
2023-07-15T16:54:09.459Z,100832.52
2023-07-15T16:56:37.491Z,100830.59
2023-07-15T16:59:05.852Z,100838.27
2023-07-15T17:01:33.851Z,100835.56
2023-07-15T17:04:01.892Z,100825.48
2023-07-15T17:06:29.801Z,100830.75
2023-07-15T17:08:57.731Z,100833.20
2023-07-15T17:11:25.636Z,100837.03
2023-07-15T17:13:53.579Z,100833.20
2023-07-15T17:16:21.633Z,100828.13
2023-07-15T17:18:49.604Z,100817.18
2023-07-15T17:21:17.569Z,100815.35
2023-07-15T17:23:45.660Z,100809.70
2023-07-15T17:26:13.519Z,100810.71
2023-07-15T17:28:41.468Z,100805.45
2023-07-15T17:31:10.450Z,100799.63
2023-07-15T17:33:38.419Z,100801.95
2023-07-15T17:36:06.589Z,100790.20
2023-07-15T17:38:34.511Z,100791.61
2023-07-15T17:41:02.491Z,100782.52
2023-07-15T17:43:30.416Z,100785.73
2023-07-15T17:45:58.425Z,100790.43
2023-07-15T17:48:26.334Z,100799.36
2023-07-15T17:50:54.287Z,100808.32
2023-07-15T17:53:22.313Z,100823.16
2023-07-15T17:55:53.244Z,100820.84
2023-07-15T17:58:21.298Z,100816.40
2023-07-15T18:00:49.717Z,100831.87
2023-07-15T18:03:17.821Z,100826.60
2023-07-15T18:05:45.995Z,100818.23
2023-07-15T18:08:17.076Z,100816.43
2023-07-15T18:10:45.877Z,100814.14
2023-07-15T18:13:13.822Z,100828.76
2023-07-15T18:15:41.832Z,100818.98
2023-07-15T18:18:10.574Z,100827.65
2023-07-15T18:20:38.607Z,100826.70
2023-07-15T18:23:06.633Z,100836.31
2023-07-15T18:25:34.612Z,100833.17
2023-07-15T18:28:02.536Z,100838.50
2023-07-15T18:30:30.378Z,100851.02
2023-07-15T18:32:58.420Z,100868.29
2023-07-15T18:35:26.509Z,100881.08
2023-07-15T18:37:54.567Z,100887.65
2023-07-15T18:40:22.597Z,100890.82
2023-07-15T18:42:50.498Z,100891.64
2023-07-15T18:45:21.514Z,100888.86
2023-07-15T18:47:58.513Z,100879.57
2023-07-15T18:50:26.468Z,100861.33
2023-07-15T18:52:54.400Z,100848.97
2023-07-15T18:55:22.297Z,100857.83
2023-07-15T18:57:50.312Z,100860.34
2023-07-15T19:00:18.252Z,100846.71
2023-07-15T19:02:46.322Z,100822.88
2023-07-15T19:05:14.433Z,100803.32
2023-07-15T19:07:42.482Z,100805.05
2023-07-15T19:10:10.961Z,100808.98
2023-07-15T19:12:39.036Z,100811.30
2023-07-15T19:15:07.414Z,100814.89
2023-07-15T19:17:35.423Z,100830.72
2023-07-15T19:20:03.410Z,100827.81
2023-07-15T19:22:31.451Z,100828.43
2023-07-15T19:24:59.384Z,100838.77
2023-07-15T19:27:27.387Z,100839.09
2023-07-15T19:29:55.314Z,100856.29
2023-07-15T19:32:23.501Z,100872.70
2023-07-15T19:34:51.573Z,100880.45
2023-07-15T19:37:19.625Z,100881.50
2023-07-15T19:39:49.817Z,100905.18
2023-07-15T19:42:20.253Z,100925.29
2023-07-15T19:44:48.161Z,100948.34
2023-07-15T19:47:17.268Z,100956.23
2023-07-15T19:49:45.442Z,100968.87
2023-07-15T19:52:13.405Z,100979.05
2023-07-15T19:54:41.341Z,100981.34
2023-07-15T19:57:09.301Z,100973.59
2023-07-15T19:59:37.360Z,100969.34
2023-07-15T20:02:05.618Z,100946.91
2023-07-15T20:04:33.632Z,100935.27
2023-07-15T20:07:01.542Z,100923.00
2023-07-15T20:09:29.574Z,100920.19
2023-07-15T20:11:57.528Z,100915.19
2023-07-15T20:14:25.499Z,100918.39
2023-07-15T20:16:53.936Z,100916.52
2023-07-15T20:19:22.934Z,100919.11
2023-07-15T20:21:52.822Z,100923.69
2023-07-15T20:24:20.792Z,100927.88
2023-07-15T20:26:48.890Z,100942.65
2023-07-15T20:29:16.857Z,100926.50
2023-07-15T20:31:44.786Z,100929.90
2023-07-15T20:34:12.910Z,100917.02
2023-07-15T20:36:40.880Z,100927.45
2023-07-15T20:39:08.932Z,100945.79
2023-07-15T20:41:36.991Z,100944.02
2023-07-15T20:44:05.133Z,100942.29
2023-07-15T20:46:33.096Z,100964.95
2023-07-15T20:49:01.195Z,100979.90
2023-07-15T20:51:37.380Z,101000.86
2023-07-15T20:54:05.672Z,101012.86
2023-07-15T20:56:35.879Z,101043.37
2023-07-15T20:59:04.190Z,101063.55
2023-07-15T21:01:32.722Z,101082.94
2023-07-15T21:04:00.815Z,101118.38
2023-07-15T21:06:28.748Z,101152.06
2023-07-15T21:08:59.503Z,101160.53
2023-07-15T21:11:28.832Z,101168.41
2023-07-15T21:13:56.774Z,101167.79
2023-07-15T21:16:24.755Z,101167.92
2023-07-15T21:18:52.763Z,101211.55
2023-07-15T21:21:20.719Z,101231.82
2023-07-15T21:23:48.725Z,101234.34
2023-07-15T21:26:19.617Z,101242.88
2023-07-15T21:28:47.653Z,101242.55
2023-07-15T21:31:15.852Z,101223.38
2023-07-15T21:33:46.756Z,101248.82
2023-07-15T21:36:14.967Z,101283.78
2023-07-15T21:38:44.144Z,101284.86
2023-07-15T21:41:12.112Z,101296.70
2023-07-15T21:43:40.039Z,101298.98
2023-07-15T21:46:08.025Z,101291.95
2023-07-15T21:48:35.982Z,101306.12
2023-07-15T21:51:05.616Z,101317.76
2023-07-15T21:53:33.645Z,101279.73
2023-07-15T21:56:02.484Z,101262.59
2023-07-15T21:58:30.345Z,101261.38
2023-07-15T22:01:02.081Z,101292.67
2023-07-15T22:03:30.127Z,101280.80
2023-07-15T22:05:58.602Z,101279.23
2023-07-15T22:08:26.806Z,101289.90
2023-07-15T22:10:54.730Z,101297.87
2023-07-15T22:13:22.702Z,101318.09
2023-07-15T22:15:50.759Z,101295.09
2023-07-15T22:18:34.252Z,101289.83
2023-07-15T22:21:06.961Z,101336.33
2023-07-15T22:23:34.942Z,101312.88
2023-07-15T22:26:03.053Z,101307.03
2023-07-15T22:28:31.098Z,101325.11
2023-07-15T22:30:59.090Z,101321.38
2023-07-15T22:33:27.155Z,101319.03
2023-07-15T22:35:55.128Z,101315.14
2023-07-15T22:38:23.268Z,101323.67
2023-07-15T22:40:51.258Z,101332.44
2023-07-15T22:43:20.909Z,101340.38
2023-07-15T22:45:56.891Z,101342.28
2023-07-15T22:48:27.748Z,101348.73
2023-07-15T22:50:55.985Z,101365.63
2023-07-15T22:53:26.415Z,101406.47
2023-07-15T22:55:54.649Z,101418.73
2023-07-15T22:58:22.993Z,101429.82
2023-07-15T23:00:53.199Z,101449.67
2023-07-15T23:03:23.158Z,101455.62
2023-07-15T23:05:54.110Z,101470.92
2023-07-15T23:08:22.410Z,101435.64
2023-07-15T23:10:50.309Z,101444.73
2023-07-15T23:13:18.272Z,101464.94
2023-07-15T23:15:46.232Z,101467.69
2023-07-15T23:18:14.208Z,101459.70
2023-07-15T23:20:42.488Z,101470.01
2023-07-15T23:23:17.105Z,101497.34
2023-07-15T23:25:47.574Z,101520.70
2023-07-15T23:28:16.081Z,101529.45
2023-07-15T23:30:51.079Z,101536.39
2023-07-15T23:33:19.136Z,101535.12
2023-07-15T23:35:47.515Z,101527.69
2023-07-15T23:38:15.456Z,101535.70
2023-07-15T23:40:43.647Z,101535.93
2023-07-15T23:43:12.922Z,101551.82
2023-07-15T23:45:40.878Z,101571.12
2023-07-15T23:48:09.123Z,101560.59
2023-07-15T23:50:37.298Z,101545.80
2023-07-15T23:53:05.462Z,101540.51
2023-07-15T23:55:33.448Z,101540.87
2023-07-15T23:58:02.334Z,101549.57
